Terminal Aerodrome Forecast
Issued by NWS

Current Version | Previous Version | Text Only | Print | Product List | Glossary On
Versions: 1 2 3 4 5 6 7 8 9 10 11 12 13 14 15 16 17 18 19 20 21 22 23 24 25
000 FTUS41 KOKX 020535 TAFHPN TAF KHPN 020535Z 0206/0306 32005KT P6SM SCT250 FM021300 VRB04KT P6SM BKN250 FM021700 20006KT P6SM FEW050 BKN250 FM030100 VRB03KT P6SM SCT150 BKN250 AMD NOT SKED=

USA.gov is the U.S. government's official web portal to all federal, state and local government web resources and services.